sensor_id;sensor_type;location;lat;lon;timestamp;temperature;humidity
42031;DHT22;27709;52.036;5.906;2023-12-20T00:00:20;8.20;99.90
42031;DHT22;27709;52.036;5.906;2023-12-20T00:02:45;8.20;99.90
42031;DHT22;27709;52.036;5.906;2023-12-20T00:05:13;8.20;99.90
42031;DHT22;27709;52.036;5.906;2023-12-20T00:07:39;8.20;99.90
42031;DHT22;27709;52.036;5.906;2023-12-20T00:10:05;8.20;99.90
42031;DHT22;27709;52.036;5.906;2023-12-20T00:12:30;8.20;99.90
42031;DHT22;27709;52.036;5.906;2023-12-20T00:14:56;8.20;99.90
42031;DHT22;27709;52.036;5.906;2023-12-20T00:17:21;8.10;99.90
42031;DHT22;27709;52.036;5.906;2023-12-20T00:19:47;8.10;99.90
42031;DHT22;27709;52.036;5.906;2023-12-20T00:22:12;8.20;99.90
42031;DHT22;27709;52.036;5.906;2023-12-20T00:24:38;8.20;99.90
42031;DHT22;27709;52.036;5.906;2023-12-20T00:27:04;8.20;99.90
42031;DHT22;27709;52.036;5.906;2023-12-20T00:29:29;8.20;99.90
42031;DHT22;27709;52.036;5.906;2023-12-20T00:31:55;8.20;99.90
42031;DHT22;27709;52.036;5.906;2023-12-20T00:34:21;8.10;99.90
42031;DHT22;27709;52.036;5.906;2023-12-20T00:36:46;8.00;99.90
42031;DHT22;27709;52.036;5.906;2023-12-20T00:39:12;8.00;99.90
42031;DHT22;27709;52.036;5.906;2023-12-20T00:41:38;7.90;99.90
42031;DHT22;27709;52.036;5.906;2023-12-20T00:44:04;7.90;99.90
42031;DHT22;27709;52.036;5.906;2023-12-20T00:46:30;7.80;99.90
42031;DHT22;27709;52.036;5.906;2023-12-20T00:48:55;7.80;99.90
42031;DHT22;27709;52.036;5.906;2023-12-20T00:51:21;7.70;99.90
42031;DHT22;27709;52.036;5.906;2023-12-20T00:53:50;7.70;99.90
42031;DHT22;27709;52.036;5.906;2023-12-20T00:56:15;7.70;99.90
42031;DHT22;27709;52.036;5.906;2023-12-20T00:58:41;7.70;99.90
42031;DHT22;27709;52.036;5.906;2023-12-20T01:01:06;7.70;99.90
42031;DHT22;27709;52.036;5.906;2023-12-20T01:03:32;7.60;99.90
42031;DHT22;27709;52.036;5.906;2023-12-20T01:05:58;7.60;99.90
42031;DHT22;27709;52.036;5.906;2023-12-20T01:08:23;7.60;99.90
42031;DHT22;27709;52.036;5.906;2023-12-20T01:10:49;7.50;99.90
42031;DHT22;27709;52.036;5.906;2023-12-20T01:13:14;7.50;99.90
42031;DHT22;27709;52.036;5.906;2023-12-20T01:15:40;7.50;99.90
42031;DHT22;27709;52.036;5.906;2023-12-20T01:18:05;7.50;99.90
42031;DHT22;27709;52.036;5.906;2023-12-20T01:20:31;7.40;99.90
42031;DHT22;27709;52.036;5.906;2023-12-20T01:22:57;7.50;99.90
42031;DHT22;27709;52.036;5.906;2023-12-20T01:25:22;7.50;99.90
42031;DHT22;27709;52.036;5.906;2023-12-20T01:27:48;7.50;99.90
42031;DHT22;27709;52.036;5.906;2023-12-20T01:30:14;7.50;99.90
42031;DHT22;27709;52.036;5.906;2023-12-20T01:32:40;7.50;99.90
42031;DHT22;27709;52.036;5.906;2023-12-20T01:35:06;7.50;99.90
42031;DHT22;27709;52.036;5.906;2023-12-20T01:37:31;7.50;99.90
42031;DHT22;27709;52.036;5.906;2023-12-20T01:39:57;7.60;99.90
42031;DHT22;27709;52.036;5.906;2023-12-20T01:42:24;7.60;99.90
42031;DHT22;27709;52.036;5.906;2023-12-20T01:44:49;7.50;99.90
42031;DHT22;27709;52.036;5.906;2023-12-20T01:47:15;7.50;99.90
42031;DHT22;27709;52.036;5.906;2023-12-20T01:49:40;7.50;99.90
42031;DHT22;27709;52.036;5.906;2023-12-20T01:52:07;7.40;99.90
42031;DHT22;27709;52.036;5.906;2023-12-20T01:54:33;7.40;99.90
42031;DHT22;27709;52.036;5.906;2023-12-20T01:56:59;7.40;99.90
42031;DHT22;27709;52.036;5.906;2023-12-20T01:59:26;7.40;99.90
42031;DHT22;27709;52.036;5.906;2023-12-20T02:01:51;7.40;99.90
42031;DHT22;27709;52.036;5.906;2023-12-20T02:04:17;7.40;99.90
42031;DHT22;27709;52.036;5.906;2023-12-20T02:06:43;7.40;99.90
42031;DHT22;27709;52.036;5.906;2023-12-20T02:09:11;7.50;99.90
42031;DHT22;27709;52.036;5.906;2023-12-20T02:11:37;7.50;99.90
42031;DHT22;27709;52.036;5.906;2023-12-20T02:14:03;7.50;99.90
42031;DHT22;27709;52.036;5.906;2023-12-20T02:16:29;7.50;99.90
42031;DHT22;27709;52.036;5.906;2023-12-20T02:18:54;7.60;99.90
42031;DHT22;27709;52.036;5.906;2023-12-20T02:21:33;7.70;99.90
42031;DHT22;27709;52.036;5.906;2023-12-20T02:24:00;7.80;99.90
42031;DHT22;27709;52.036;5.906;2023-12-20T02:26:26;7.70;99.90
42031;DHT22;27709;52.036;5.906;2023-12-20T02:28:51;7.70;99.90
42031;DHT22;27709;52.036;5.906;2023-12-20T02:31:21;7.70;99.90
42031;DHT22;27709;52.036;5.906;2023-12-20T02:33:47;7.80;99.90
42031;DHT22;27709;52.036;5.906;2023-12-20T02:36:13;7.80;99.90
42031;DHT22;27709;52.036;5.906;2023-12-20T02:38:38;7.80;99.90
42031;DHT22;27709;52.036;5.906;2023-12-20T02:41:04;7.80;99.90
42031;DHT22;27709;52.036;5.906;2023-12-20T02:43:29;7.80;99.90
42031;DHT22;27709;52.036;5.906;2023-12-20T02:45:55;7.80;99.90
42031;DHT22;27709;52.036;5.906;2023-12-20T02:48:20;7.70;99.90
42031;DHT22;27709;52.036;5.906;2023-12-20T02:50:47;7.80;99.90
42031;DHT22;27709;52.036;5.906;2023-12-20T02:53:13;7.80;99.90
42031;DHT22;27709;52.036;5.906;2023-12-20T02:55:39;7.80;99.90
42031;DHT22;27709;52.036;5.906;2023-12-20T02:58:04;7.80;99.90
42031;DHT22;27709;52.036;5.906;2023-12-20T03:00:30;7.90;99.90
42031;DHT22;27709;52.036;5.906;2023-12-20T03:02:55;7.90;99.90
42031;DHT22;27709;52.036;5.906;2023-12-20T03:05:21;7.90;99.90
42031;DHT22;27709;52.036;5.906;2023-12-20T03:07:46;7.90;99.90
42031;DHT22;27709;52.036;5.906;2023-12-20T03:10:12;7.90;99.90
42031;DHT22;27709;52.036;5.906;2023-12-20T03:12:38;7.80;99.90
42031;DHT22;27709;52.036;5.906;2023-12-20T03:15:04;7.80;99.90
42031;DHT22;27709;52.036;5.906;2023-12-20T03:17:29;7.80;99.90
42031;DHT22;27709;52.036;5.906;2023-12-20T03:19:55;7.80;99.90
42031;DHT22;27709;52.036;5.906;2023-12-20T03:22:21;7.70;99.90
42031;DHT22;27709;52.036;5.906;2023-12-20T03:24:46;7.70;99.90
42031;DHT22;27709;52.036;5.906;2023-12-20T03:27:12;7.70;99.90
42031;DHT22;27709;52.036;5.906;2023-12-20T03:29:37;7.70;99.90
42031;DHT22;27709;52.036;5.906;2023-12-20T03:32:03;7.60;99.90
42031;DHT22;27709;52.036;5.906;2023-12-20T03:34:29;7.60;99.90
42031;DHT22;27709;52.036;5.906;2023-12-20T03:36:54;7.60;99.90
42031;DHT22;27709;52.036;5.906;2023-12-20T03:39:20;7.50;99.90
42031;DHT22;27709;52.036;5.906;2023-12-20T03:41:45;7.50;99.90
42031;DHT22;27709;52.036;5.906;2023-12-20T03:44:11;7.50;99.90
42031;DHT22;27709;52.036;5.906;2023-12-20T03:46:36;7.50;99.90
42031;DHT22;27709;52.036;5.906;2023-12-20T03:49:02;7.50;99.90
42031;DHT22;27709;52.036;5.906;2023-12-20T03:51:27;7.50;99.90
42031;DHT22;27709;52.036;5.906;2023-12-20T03:53:53;7.50;99.90
42031;DHT22;27709;52.036;5.906;2023-12-20T03:56:19;7.60;99.90
42031;DHT22;27709;52.036;5.906;2023-12-20T03:58:45;7.50;99.90
42031;DHT22;27709;52.036;5.906;2023-12-20T04:01:11;7.50;99.90
42031;DHT22;27709;52.036;5.906;2023-12-20T04:03:39;7.50;99.90
42031;DHT22;27709;52.036;5.906;2023-12-20T04:06:05;7.50;99.90
42031;DHT22;27709;52.036;5.906;2023-12-20T04:08:31;7.50;99.90
42031;DHT22;27709;52.036;5.906;2023-12-20T04:10:57;7.50;99.90
42031;DHT22;27709;52.036;5.906;2023-12-20T04:13:22;7.50;99.90
42031;DHT22;27709;52.036;5.906;2023-12-20T04:15:48;7.50;99.90
42031;DHT22;27709;52.036;5.906;2023-12-20T04:18:15;7.60;99.90
42031;DHT22;27709;52.036;5.906;2023-12-20T04:20:41;7.70;99.90
42031;DHT22;27709;52.036;5.906;2023-12-20T04:23:06;7.70;99.90
42031;DHT22;27709;52.036;5.906;2023-12-20T04:25:32;7.80;99.90
42031;DHT22;27709;52.036;5.906;2023-12-20T04:27:57;7.80;99.90
42031;DHT22;27709;52.036;5.906;2023-12-20T04:30:23;7.70;99.90
42031;DHT22;27709;52.036;5.906;2023-12-20T04:32:49;7.70;99.90
42031;DHT22;27709;52.036;5.906;2023-12-20T04:35:14;7.80;99.90
42031;DHT22;27709;52.036;5.906;2023-12-20T04:37:40;7.80;99.90
42031;DHT22;27709;52.036;5.906;2023-12-20T04:40:06;7.90;99.90
42031;DHT22;27709;52.036;5.906;2023-12-20T04:42:33;7.90;99.90
42031;DHT22;27709;52.036;5.906;2023-12-20T04:44:59;8.00;99.90
42031;DHT22;27709;52.036;5.906;2023-12-20T04:47:24;8.00;99.90
42031;DHT22;27709;52.036;5.906;2023-12-20T04:49:50;8.00;99.90
42031;DHT22;27709;52.036;5.906;2023-12-20T04:52:15;8.10;99.90
42031;DHT22;27709;52.036;5.906;2023-12-20T04:54:41;8.10;99.90
42031;DHT22;27709;52.036;5.906;2023-12-20T04:57:06;8.20;99.90
42031;DHT22;27709;52.036;5.906;2023-12-20T04:59:32;8.30;99.90
42031;DHT22;27709;52.036;5.906;2023-12-20T05:01:57;8.30;99.90
42031;DHT22;27709;52.036;5.906;2023-12-20T05:04:24;8.40;99.90
42031;DHT22;27709;52.036;5.906;2023-12-20T05:06:49;8.40;99.90
42031;DHT22;27709;52.036;5.906;2023-12-20T05:09:15;8.40;99.90
42031;DHT22;27709;52.036;5.906;2023-12-20T05:11:41;8.40;99.90
42031;DHT22;27709;52.036;5.906;2023-12-20T05:14:07;8.50;99.90
42031;DHT22;27709;52.036;5.906;2023-12-20T05:16:32;8.40;99.90
42031;DHT22;27709;52.036;5.906;2023-12-20T05:18:58;8.40;99.90
42031;DHT22;27709;52.036;5.906;2023-12-20T05:21:26;8.40;99.90
42031;DHT22;27709;52.036;5.906;2023-12-20T05:23:51;8.40;99.90
42031;DHT22;27709;52.036;5.906;2023-12-20T05:26:17;8.40;99.90
42031;DHT22;27709;52.036;5.906;2023-12-20T05:28:43;8.40;99.90
42031;DHT22;27709;52.036;5.906;2023-12-20T05:31:08;8.50;99.90
42031;DHT22;27709;52.036;5.906;2023-12-20T05:33:34;8.60;99.90
42031;DHT22;27709;52.036;5.906;2023-12-20T05:36:00;8.60;99.90
42031;DHT22;27709;52.036;5.906;2023-12-20T05:38:25;8.70;99.90
42031;DHT22;27709;52.036;5.906;2023-12-20T05:40:51;8.70;99.90
42031;DHT22;27709;52.036;5.906;2023-12-20T05:43:16;8.80;99.90
42031;DHT22;27709;52.036;5.906;2023-12-20T05:45:42;8.70;99.90
42031;DHT22;27709;52.036;5.906;2023-12-20T05:48:08;8.70;99.90
42031;DHT22;27709;52.036;5.906;2023-12-20T05:50:33;8.80;99.90
42031;DHT22;27709;52.036;5.906;2023-12-20T05:53:00;8.80;99.90
42031;DHT22;27709;52.036;5.906;2023-12-20T05:55:26;8.80;99.90
42031;DHT22;27709;52.036;5.906;2023-12-20T05:57:51;8.80;99.90
42031;DHT22;27709;52.036;5.906;2023-12-20T06:00:17;8.80;99.90
42031;DHT22;27709;52.036;5.906;2023-12-20T06:02:43;8.90;99.90
42031;DHT22;27709;52.036;5.906;2023-12-20T06:05:09;8.90;99.90
42031;DHT22;27709;52.036;5.906;2023-12-20T06:07:34;8.90;99.90
42031;DHT22;27709;52.036;5.906;2023-12-20T06:10:00;8.90;99.90
42031;DHT22;27709;52.036;5.906;2023-12-20T06:12:26;8.90;99.90
42031;DHT22;27709;52.036;5.906;2023-12-20T06:14:53;8.90;99.90
42031;DHT22;27709;52.036;5.906;2023-12-20T06:17:18;8.90;99.90
42031;DHT22;27709;52.036;5.906;2023-12-20T06:19:44;8.90;99.90
42031;DHT22;27709;52.036;5.906;2023-12-20T06:22:13;9.00;99.90
42031;DHT22;27709;52.036;5.906;2023-12-20T06:24:39;9.00;99.90
42031;DHT22;27709;52.036;5.906;2023-12-20T06:27:04;9.00;99.90
42031;DHT22;27709;52.036;5.906;2023-12-20T06:29:30;9.00;99.90
42031;DHT22;27709;52.036;5.906;2023-12-20T06:31:56;9.00;99.90
42031;DHT22;27709;52.036;5.906;2023-12-20T06:34:22;9.00;99.90
42031;DHT22;27709;52.036;5.906;2023-12-20T06:36:47;9.10;99.90
42031;DHT22;27709;52.036;5.906;2023-12-20T06:39:13;9.10;99.90
42031;DHT22;27709;52.036;5.906;2023-12-20T06:41:39;9.00;99.90
42031;DHT22;27709;52.036;5.906;2023-12-20T06:44:05;9.10;99.90
42031;DHT22;27709;52.036;5.906;2023-12-20T06:46:30;9.00;99.90
42031;DHT22;27709;52.036;5.906;2023-12-20T06:48:56;9.00;99.90
42031;DHT22;27709;52.036;5.906;2023-12-20T06:51:21;9.00;99.90
42031;DHT22;27709;52.036;5.906;2023-12-20T06:53:51;9.00;99.90
42031;DHT22;27709;52.036;5.906;2023-12-20T06:56:16;9.00;99.90
42031;DHT22;27709;52.036;5.906;2023-12-20T06:58:42;9.00;99.90
42031;DHT22;27709;52.036;5.906;2023-12-20T07:01:12;9.00;99.90
42031;DHT22;27709;52.036;5.906;2023-12-20T07:03:38;9.00;99.90
42031;DHT22;27709;52.036;5.906;2023-12-20T07:06:04;9.00;99.90
42031;DHT22;27709;52.036;5.906;2023-12-20T07:08:30;9.00;99.90
42031;DHT22;27709;52.036;5.906;2023-12-20T07:10:55;9.00;99.90
42031;DHT22;27709;52.036;5.906;2023-12-20T07:13:21;9.00;99.90
42031;DHT22;27709;52.036;5.906;2023-12-20T07:15:47;9.00;99.90
42031;DHT22;27709;52.036;5.906;2023-12-20T07:18:13;9.10;99.90
42031;DHT22;27709;52.036;5.906;2023-12-20T07:20:39;9.00;99.90
42031;DHT22;27709;52.036;5.906;2023-12-20T07:23:04;9.00;99.90
42031;DHT22;27709;52.036;5.906;2023-12-20T07:25:30;9.00;99.90
42031;DHT22;27709;52.036;5.906;2023-12-20T07:27:58;9.00;99.90
42031;DHT22;27709;52.036;5.906;2023-12-20T07:30:24;9.00;99.90
42031;DHT22;27709;52.036;5.906;2023-12-20T07:32:49;9.00;99.90
42031;DHT22;27709;52.036;5.906;2023-12-20T07:35:18;9.10;99.90
42031;DHT22;27709;52.036;5.906;2023-12-20T07:37:44;9.10;99.90
42031;DHT22;27709;52.036;5.906;2023-12-20T07:40:10;9.10;99.90
42031;DHT22;27709;52.036;5.906;2023-12-20T07:42:35;9.10;99.90
42031;DHT22;27709;52.036;5.906;2023-12-20T07:45:01;9.00;99.90
42031;DHT22;27709;52.036;5.906;2023-12-20T07:47:27;9.10;99.90
42031;DHT22;27709;52.036;5.906;2023-12-20T07:49:52;9.10;99.90
42031;DHT22;27709;52.036;5.906;2023-12-20T07:52:18;9.10;99.90
42031;DHT22;27709;52.036;5.906;2023-12-20T07:54:44;9.20;99.90
42031;DHT22;27709;52.036;5.906;2023-12-20T07:57:11;9.20;99.90
42031;DHT22;27709;52.036;5.906;2023-12-20T07:59:36;9.20;99.90
42031;DHT22;27709;52.036;5.906;2023-12-20T08:02:02;9.20;99.90
42031;DHT22;27709;52.036;5.906;2023-12-20T08:04:27;9.20;99.90
42031;DHT22;27709;52.036;5.906;2023-12-20T08:06:53;9.20;99.90
42031;DHT22;27709;52.036;5.906;2023-12-20T08:09:19;9.30;99.90
42031;DHT22;27709;52.036;5.906;2023-12-20T08:11:46;9.30;99.90
42031;DHT22;27709;52.036;5.906;2023-12-20T08:14:11;9.30;99.90
42031;DHT22;27709;52.036;5.906;2023-12-20T08:16:37;9.30;99.90
42031;DHT22;27709;52.036;5.906;2023-12-20T08:19:03;9.20;99.90
42031;DHT22;27709;52.036;5.906;2023-12-20T08:21:28;9.30;99.90
42031;DHT22;27709;52.036;5.906;2023-12-20T08:23:54;9.30;99.90
42031;DHT22;27709;52.036;5.906;2023-12-20T08:26:19;9.30;99.90
42031;DHT22;27709;52.036;5.906;2023-12-20T08:28:46;9.30;99.90
42031;DHT22;27709;52.036;5.906;2023-12-20T08:31:16;9.20;99.90
42031;DHT22;27709;52.036;5.906;2023-12-20T08:33:46;9.30;99.90
42031;DHT22;27709;52.036;5.906;2023-12-20T08:36:12;9.40;99.90
42031;DHT22;27709;52.036;5.906;2023-12-20T08:38:38;9.30;99.90
42031;DHT22;27709;52.036;5.906;2023-12-20T08:41:04;9.40;99.90
42031;DHT22;27709;52.036;5.906;2023-12-20T08:43:32;9.30;99.90
42031;DHT22;27709;52.036;5.906;2023-12-20T08:45:59;9.40;99.90
42031;DHT22;27709;52.036;5.906;2023-12-20T08:48:24;9.40;99.90
42031;DHT22;27709;52.036;5.906;2023-12-20T08:50:50;9.40;99.90
42031;DHT22;27709;52.036;5.906;2023-12-20T08:53:18;9.40;99.90
42031;DHT22;27709;52.036;5.906;2023-12-20T08:55:43;9.40;99.90
42031;DHT22;27709;52.036;5.906;2023-12-20T08:58:09;9.50;99.90
42031;DHT22;27709;52.036;5.906;2023-12-20T09:00:35;9.50;99.90
42031;DHT22;27709;52.036;5.906;2023-12-20T09:03:04;9.50;99.90
42031;DHT22;27709;52.036;5.906;2023-12-20T09:05:29;9.50;99.90
42031;DHT22;27709;52.036;5.906;2023-12-20T09:07:55;9.50;99.90
42031;DHT22;27709;52.036;5.906;2023-12-20T09:10:21;9.50;99.90
42031;DHT22;27709;52.036;5.906;2023-12-20T09:12:53;9.50;99.90
42031;DHT22;27709;52.036;5.906;2023-12-20T09:15:26;9.50;99.90
42031;DHT22;27709;52.036;5.906;2023-12-20T09:17:52;9.50;99.90
42031;DHT22;27709;52.036;5.906;2023-12-20T09:20:18;9.50;99.90
42031;DHT22;27709;52.036;5.906;2023-12-20T09:22:45;9.50;99.90
42031;DHT22;27709;52.036;5.906;2023-12-20T09:25:11;9.50;99.90
42031;DHT22;27709;52.036;5.906;2023-12-20T09:27:38;9.50;99.90
42031;DHT22;27709;52.036;5.906;2023-12-20T09:30:04;9.50;99.90
42031;DHT22;27709;52.036;5.906;2023-12-20T09:32:31;9.50;99.90
42031;DHT22;27709;52.036;5.906;2023-12-20T09:34:57;9.50;99.90
42031;DHT22;27709;52.036;5.906;2023-12-20T09:37:25;9.50;99.90
42031;DHT22;27709;52.036;5.906;2023-12-20T09:39:51;9.50;99.90
42031;DHT22;27709;52.036;5.906;2023-12-20T09:42:39;9.50;99.90
42031;DHT22;27709;52.036;5.906;2023-12-20T09:45:09;9.50;99.90
42031;DHT22;27709;52.036;5.906;2023-12-20T09:47:35;9.50;99.90
42031;DHT22;27709;52.036;5.906;2023-12-20T09:50:02;9.50;99.90
42031;DHT22;27709;52.036;5.906;2023-12-20T09:52:28;9.50;99.90
42031;DHT22;27709;52.036;5.906;2023-12-20T09:54:55;9.50;99.90
42031;DHT22;27709;52.036;5.906;2023-12-20T09:57:22;9.50;99.90
42031;DHT22;27709;52.036;5.906;2023-12-20T09:59:48;9.50;99.90
42031;DHT22;27709;52.036;5.906;2023-12-20T10:02:14;9.50;99.90
42031;DHT22;27709;52.036;5.906;2023-12-20T10:04:47;9.40;99.90
42031;DHT22;27709;52.036;5.906;2023-12-20T10:07:15;9.50;99.90
42031;DHT22;27709;52.036;5.906;2023-12-20T10:09:41;9.50;99.90
42031;DHT22;27709;52.036;5.906;2023-12-20T10:12:07;9.50;99.90
42031;DHT22;27709;52.036;5.906;2023-12-20T10:14:33;9.60;99.90
42031;DHT22;27709;52.036;5.906;2023-12-20T10:17:02;9.70;99.90
42031;DHT22;27709;52.036;5.906;2023-12-20T10:19:29;9.70;99.90
42031;DHT22;27709;52.036;5.906;2023-12-20T10:21:54;9.70;99.90
42031;DHT22;27709;52.036;5.906;2023-12-20T10:24:20;9.80;99.90
42031;DHT22;27709;52.036;5.906;2023-12-20T10:26:46;9.80;99.90
42031;DHT22;27709;52.036;5.906;2023-12-20T10:29:11;9.90;99.90
42031;DHT22;27709;52.036;5.906;2023-12-20T10:31:37;10.00;99.90
42031;DHT22;27709;52.036;5.906;2023-12-20T10:34:05;10.00;99.90
42031;DHT22;27709;52.036;5.906;2023-12-20T10:36:32;10.00;99.90
42031;DHT22;27709;52.036;5.906;2023-12-20T10:38:59;9.90;99.90
42031;DHT22;27709;52.036;5.906;2023-12-20T10:41:29;9.90;99.90
42031;DHT22;27709;52.036;5.906;2023-12-20T10:44:03;9.90;99.90
42031;DHT22;27709;52.036;5.906;2023-12-20T10:46:30;10.00;99.90
42031;DHT22;27709;52.036;5.906;2023-12-20T10:48:57;10.00;99.90
42031;DHT22;27709;52.036;5.906;2023-12-20T10:51:23;10.00;99.90
42031;DHT22;27709;52.036;5.906;2023-12-20T10:53:52;10.00;99.90
42031;DHT22;27709;52.036;5.906;2023-12-20T10:56:19;10.00;99.90
42031;DHT22;27709;52.036;5.906;2023-12-20T10:58:45;10.10;99.90
42031;DHT22;27709;52.036;5.906;2023-12-20T11:01:16;10.10;99.90
42031;DHT22;27709;52.036;5.906;2023-12-20T11:03:53;10.20;99.90
42031;DHT22;27709;52.036;5.906;2023-12-20T11:11:58;10.30;99.90
42031;DHT22;27709;52.036;5.906;2023-12-20T11:17:11;10.40;99.90
42031;DHT22;27709;52.036;5.906;2023-12-20T11:22:27;10.60;99.90
42031;DHT22;27709;52.036;5.906;2023-12-20T11:24:53;10.60;99.90
42031;DHT22;27709;52.036;5.906;2023-12-20T11:27:21;10.60;99.90
42031;DHT22;27709;52.036;5.906;2023-12-20T11:29:56;10.60;99.90
42031;DHT22;27709;52.036;5.906;2023-12-20T11:34:55;10.80;99.90
42031;DHT22;27709;52.036;5.906;2023-12-20T11:37:21;10.90;99.90
42031;DHT22;27709;52.036;5.906;2023-12-20T11:42:39;10.80;99.90
42031;DHT22;27709;52.036;5.906;2023-12-20T11:45:05;10.70;99.90
42031;DHT22;27709;52.036;5.906;2023-12-20T11:47:33;10.70;99.90
42031;DHT22;27709;52.036;5.906;2023-12-20T11:50:00;10.70;99.90
42031;DHT22;27709;52.036;5.906;2023-12-20T11:52:29;10.80;99.90
42031;DHT22;27709;52.036;5.906;2023-12-20T11:54:54;10.80;99.90
42031;DHT22;27709;52.036;5.906;2023-12-20T11:57:20;10.80;99.90
42031;DHT22;27709;52.036;5.906;2023-12-20T11:59:46;10.90;99.90
42031;DHT22;27709;52.036;5.906;2023-12-20T12:02:12;10.90;99.90
42031;DHT22;27709;52.036;5.906;2023-12-20T12:04:37;10.80;99.90
42031;DHT22;27709;52.036;5.906;2023-12-20T12:07:03;10.90;99.90
42031;DHT22;27709;52.036;5.906;2023-12-20T12:09:29;10.90;99.90
42031;DHT22;27709;52.036;5.906;2023-12-20T12:11:55;10.90;99.90
42031;DHT22;27709;52.036;5.906;2023-12-20T12:14:21;10.90;99.90
42031;DHT22;27709;52.036;5.906;2023-12-20T12:16:47;10.90;99.90
42031;DHT22;27709;52.036;5.906;2023-12-20T12:19:23;10.90;99.90
42031;DHT22;27709;52.036;5.906;2023-12-20T12:21:49;10.90;99.90
42031;DHT22;27709;52.036;5.906;2023-12-20T12:24:21;10.90;99.90
42031;DHT22;27709;52.036;5.906;2023-12-20T12:26:51;10.90;99.90
42031;DHT22;27709;52.036;5.906;2023-12-20T12:29:17;11.00;99.90
42031;DHT22;27709;52.036;5.906;2023-12-20T12:31:42;11.00;99.90
42031;DHT22;27709;52.036;5.906;2023-12-20T12:34:17;11.00;99.90
42031;DHT22;27709;52.036;5.906;2023-12-20T12:36:43;11.00;99.90
42031;DHT22;27709;52.036;5.906;2023-12-20T12:39:09;11.00;99.90
42031;DHT22;27709;52.036;5.906;2023-12-20T12:41:37;11.10;99.90
42031;DHT22;27709;52.036;5.906;2023-12-20T12:44:04;11.10;99.90
42031;DHT22;27709;52.036;5.906;2023-12-20T12:46:29;11.10;99.90
42031;DHT22;27709;52.036;5.906;2023-12-20T12:48:55;11.20;99.90
42031;DHT22;27709;52.036;5.906;2023-12-20T12:51:21;11.30;99.90
42031;DHT22;27709;52.036;5.906;2023-12-20T12:53:46;11.30;99.90
42031;DHT22;27709;52.036;5.906;2023-12-20T12:56:13;11.30;99.90
42031;DHT22;27709;52.036;5.906;2023-12-20T12:58:39;11.30;99.90
42031;DHT22;27709;52.036;5.906;2023-12-20T13:01:04;11.30;99.90
42031;DHT22;27709;52.036;5.906;2023-12-20T13:03:30;11.20;99.90
42031;DHT22;27709;52.036;5.906;2023-12-20T13:05:56;11.30;99.90
42031;DHT22;27709;52.036;5.906;2023-12-20T13:08:21;11.20;99.90
42031;DHT22;27709;52.036;5.906;2023-12-20T13:10:52;11.20;99.90
42031;DHT22;27709;52.036;5.906;2023-12-20T13:13:17;11.20;99.90
42031;DHT22;27709;52.036;5.906;2023-12-20T13:15:43;11.20;99.90
42031;DHT22;27709;52.036;5.906;2023-12-20T13:18:16;11.10;99.90
42031;DHT22;27709;52.036;5.906;2023-12-20T13:20:42;11.10;99.90
42031;DHT22;27709;52.036;5.906;2023-12-20T13:23:08;11.10;99.90
42031;DHT22;27709;52.036;5.906;2023-12-20T13:25:33;11.10;99.90
42031;DHT22;27709;52.036;5.906;2023-12-20T13:27:59;11.00;99.90
42031;DHT22;27709;52.036;5.906;2023-12-20T13:30:25;11.00;99.90
42031;DHT22;27709;52.036;5.906;2023-12-20T13:32:50;11.00;99.90
42031;DHT22;27709;52.036;5.906;2023-12-20T13:35:16;11.00;99.90
42031;DHT22;27709;52.036;5.906;2023-12-20T13:37:41;11.00;99.90
42031;DHT22;27709;52.036;5.906;2023-12-20T13:40:07;11.00;99.90
42031;DHT22;27709;52.036;5.906;2023-12-20T13:42:35;11.10;99.90
42031;DHT22;27709;52.036;5.906;2023-12-20T13:45:04;11.00;99.90
42031;DHT22;27709;52.036;5.906;2023-12-20T13:47:31;11.00;99.90
42031;DHT22;27709;52.036;5.906;2023-12-20T13:49:56;11.00;99.90
42031;DHT22;27709;52.036;5.906;2023-12-20T13:52:22;11.00;99.90
42031;DHT22;27709;52.036;5.906;2023-12-20T13:54:47;11.00;99.90
42031;DHT22;27709;52.036;5.906;2023-12-20T13:57:13;11.00;99.90
42031;DHT22;27709;52.036;5.906;2023-12-20T13:59:38;11.00;99.90
42031;DHT22;27709;52.036;5.906;2023-12-20T14:02:04;11.00;99.90
42031;DHT22;27709;52.036;5.906;2023-12-20T14:04:30;11.00;99.90
42031;DHT22;27709;52.036;5.906;2023-12-20T14:06:56;11.00;99.90
42031;DHT22;27709;52.036;5.906;2023-12-20T14:09:22;11.00;99.90
42031;DHT22;27709;52.036;5.906;2023-12-20T14:11:48;11.10;99.90
42031;DHT22;27709;52.036;5.906;2023-12-20T14:14:14;11.00;99.90
42031;DHT22;27709;52.036;5.906;2023-12-20T14:16:39;11.00;99.90
42031;DHT22;27709;52.036;5.906;2023-12-20T14:19:05;11.00;99.90
42031;DHT22;27709;52.036;5.906;2023-12-20T14:21:33;11.00;99.90
42031;DHT22;27709;52.036;5.906;2023-12-20T14:23:58;11.00;99.90
42031;DHT22;27709;52.036;5.906;2023-12-20T14:26:24;11.00;99.90
42031;DHT22;27709;52.036;5.906;2023-12-20T14:28:50;11.00;99.90
42031;DHT22;27709;52.036;5.906;2023-12-20T14:31:15;11.00;99.90
42031;DHT22;27709;52.036;5.906;2023-12-20T14:33:41;11.00;99.90
42031;DHT22;27709;52.036;5.906;2023-12-20T14:36:08;11.00;99.90
42031;DHT22;27709;52.036;5.906;2023-12-20T14:38:34;11.00;99.90
42031;DHT22;27709;52.036;5.906;2023-12-20T14:41:00;11.00;99.90
42031;DHT22;27709;52.036;5.906;2023-12-20T14:43:28;10.90;99.90
42031;DHT22;27709;52.036;5.906;2023-12-20T14:45:55;10.90;99.90
42031;DHT22;27709;52.036;5.906;2023-12-20T14:48:20;10.90;99.90
42031;DHT22;27709;52.036;5.906;2023-12-20T14:50:46;11.00;99.90
42031;DHT22;27709;52.036;5.906;2023-12-20T14:53:14;10.90;99.90
42031;DHT22;27709;52.036;5.906;2023-12-20T14:55:41;10.90;99.90
42031;DHT22;27709;52.036;5.906;2023-12-20T14:58:09;11.00;99.90
42031;DHT22;27709;52.036;5.906;2023-12-20T15:00:34;11.00;99.90
42031;DHT22;27709;52.036;5.906;2023-12-20T15:03:00;10.90;99.90
42031;DHT22;27709;52.036;5.906;2023-12-20T15:05:26;10.90;99.90
42031;DHT22;27709;52.036;5.906;2023-12-20T15:07:52;10.90;99.90
42031;DHT22;27709;52.036;5.906;2023-12-20T15:10:18;10.90;99.90
42031;DHT22;27709;52.036;5.906;2023-12-20T15:12:44;10.90;99.90
42031;DHT22;27709;52.036;5.906;2023-12-20T15:15:11;10.90;99.90
42031;DHT22;27709;52.036;5.906;2023-12-20T15:17:36;10.80;99.90
42031;DHT22;27709;52.036;5.906;2023-12-20T15:20:03;10.80;99.90
42031;DHT22;27709;52.036;5.906;2023-12-20T15:22:30;10.80;99.90
42031;DHT22;27709;52.036;5.906;2023-12-20T15:24:55;10.80;99.90
42031;DHT22;27709;52.036;5.906;2023-12-20T15:27:21;10.80;99.90
42031;DHT22;27709;52.036;5.906;2023-12-20T15:29:47;10.70;99.90
42031;DHT22;27709;52.036;5.906;2023-12-20T15:32:15;10.80;99.90
42031;DHT22;27709;52.036;5.906;2023-12-20T15:34:40;10.70;99.90
42031;DHT22;27709;52.036;5.906;2023-12-20T15:37:06;10.70;99.90
42031;DHT22;27709;52.036;5.906;2023-12-20T15:39:31;10.60;99.90
42031;DHT22;27709;52.036;5.906;2023-12-20T15:41:57;10.60;99.90
42031;DHT22;27709;52.036;5.906;2023-12-20T15:44:23;10.60;99.90
42031;DHT22;27709;52.036;5.906;2023-12-20T15:46:48;10.60;99.90
42031;DHT22;27709;52.036;5.906;2023-12-20T15:49:14;10.60;99.90
42031;DHT22;27709;52.036;5.906;2023-12-20T15:51:42;10.60;99.90